createdAt,value
2023-01-21T00:02:22.313Z,15.40
2023-01-21T00:07:27.719Z,16.33
2023-01-21T00:12:31.170Z,17.53
2023-01-21T00:17:36.347Z,16.43
2023-01-21T00:22:41.918Z,16.07
2023-01-21T00:27:45.863Z,15.53
2023-01-21T00:32:49.296Z,14.70
2023-01-21T00:37:53.884Z,16.53
2023-01-21T00:42:57.089Z,15.70
2023-01-21T00:48:00.282Z,14.70
2023-01-21T00:53:04.823Z,16.10
2023-01-21T00:58:08.047Z,15.90
2023-01-21T01:03:11.360Z,17.10
2023-01-21T01:08:15.771Z,19.13
2023-01-21T01:13:18.879Z,18.53
2023-01-21T01:18:22.021Z,16.70
2023-01-21T01:23:27.104Z,17.47
2023-01-21T01:28:30.700Z,16.80
2023-01-21T01:33:34.007Z,16.40
2023-01-21T01:38:38.611Z,17.70
2023-01-21T01:43:54.454Z,18.97
2023-01-21T01:49:02.773Z,16.70
2023-01-21T01:54:08.233Z,18.77
2023-01-21T01:59:11.833Z,17.53
2023-01-21T02:04:21.092Z,16.93
2023-01-21T02:09:29.760Z,15.80
2023-01-21T02:14:36.493Z,17.30
2023-01-21T02:20:12.783Z,16.60
2023-01-21T02:25:42.381Z,15.67
2023-01-21T02:31:07.238Z,15.20
2023-01-21T02:36:30.926Z,14.03
2023-01-21T02:41:45.316Z,15.80
2023-01-21T02:46:54.619Z,16.60
2023-01-21T02:51:59.146Z,16.60
2023-01-21T02:57:02.380Z,17.20
2023-01-21T03:02:19.469Z,17.00
2023-01-21T03:07:29.939Z,15.87
2023-01-21T03:12:40.605Z,17.27
2023-01-21T03:17:52.007Z,16.60
2023-01-21T03:23:02.417Z,16.80
2023-01-21T03:28:09.466Z,18.50
2023-01-21T03:33:16.353Z,16.83
2023-01-21T03:38:26.287Z,17.60
2023-01-21T03:43:29.529Z,15.70
2023-01-21T03:48:39.541Z,17.60
2023-01-21T03:53:44.908Z,17.77
2023-01-21T03:58:48.008Z,16.63
2023-01-21T04:03:51.155Z,17.13
2023-01-21T04:08:55.729Z,16.47
2023-01-21T04:13:58.797Z,18.00
2023-01-21T04:19:01.924Z,17.03
2023-01-21T04:24:07.474Z,16.80
2023-01-21T04:29:10.599Z,18.10
2023-01-21T04:34:14.017Z,18.83
2023-01-21T04:39:19.027Z,18.83
2023-01-21T04:44:22.118Z,14.57
2023-01-21T04:49:25.321Z,15.93
2023-01-21T04:54:29.796Z,15.67
2023-01-21T04:59:32.967Z,16.60
2023-01-21T05:04:36.092Z,16.90
2023-01-21T05:09:40.716Z,17.77
2023-01-21T05:14:43.988Z,18.10
2023-01-21T05:19:47.393Z,13.90
2023-01-21T05:24:51.944Z,14.07
2023-01-21T05:29:57.060Z,13.90
2023-01-21T05:35:00.316Z,14.13
2023-01-21T05:40:05.493Z,12.40
2023-01-21T05:45:09.625Z,14.30
2023-01-21T05:50:13.974Z,14.60
2023-01-21T05:55:18.750Z,15.00
2023-01-21T06:00:22.707Z,14.03
2023-01-21T06:05:25.734Z,15.20
2023-01-21T06:10:30.229Z,15.20
2023-01-21T06:15:33.847Z,13.67
2023-01-21T06:20:38.130Z,13.77
2023-01-21T06:25:43.647Z,13.10
2023-01-21T06:30:46.937Z,14.90
2023-01-21T06:35:50.419Z,13.90
2023-01-21T06:40:54.912Z,14.03
2023-01-21T06:45:58.183Z,13.07
2023-01-21T06:51:02.000Z,13.90
2023-01-21T06:56:06.913Z,13.80
2023-01-21T07:01:11.235Z,13.60
2023-01-21T07:06:14.320Z,13.77
2023-01-21T07:11:18.956Z,12.57
2023-01-21T07:16:22.179Z,14.67
2023-01-21T07:21:26.138Z,12.80
2023-01-21T07:26:30.691Z,10.00
2023-01-21T07:31:34.115Z,13.10
2023-01-21T07:36:37.912Z,12.87
2023-01-21T07:41:42.885Z,12.13
2023-01-21T07:46:48.129Z,11.40
2023-01-21T07:51:51.580Z,12.00
2023-01-21T07:56:56.140Z,12.70
2023-01-21T08:01:59.615Z,12.27
2023-01-21T08:07:12.945Z,13.13
2023-01-21T08:12:18.429Z,11.77
2023-01-21T08:17:22.392Z,14.20
2023-01-21T08:22:26.009Z,14.33
2023-01-21T08:27:30.693Z,14.57
2023-01-21T08:32:34.009Z,12.30
2023-01-21T08:37:37.559Z,15.87
2023-01-21T08:42:42.486Z,15.60
2023-01-21T08:47:45.779Z,14.93
2023-01-21T08:52:52.226Z,12.30
2023-01-21T08:57:58.441Z,12.33
2023-01-21T09:03:01.743Z,11.63
2023-01-21T09:08:04.975Z,13.30
2023-01-21T09:13:11.641Z,11.50
2023-01-21T09:18:15.177Z,10.87
2023-01-21T09:23:25.426Z,10.50
2023-01-21T09:28:32.144Z,16.10
2023-01-21T09:33:38.441Z,9.00
2023-01-21T09:38:43.123Z,7.90
2023-01-21T09:43:55.537Z,8.87
2023-01-21T09:49:00.735Z,24.73
2023-01-21T09:54:06.673Z,10.50
2023-01-21T09:59:21.106Z,7.80
2023-01-21T10:04:35.660Z,5.50
2023-01-21T10:09:49.980Z,5.50
2023-01-21T10:15:08.183Z,5.63
2023-01-21T10:20:18.347Z,6.80
2023-01-21T10:25:29.201Z,6.27
2023-01-21T10:30:38.924Z,6.40
2023-01-21T10:35:59.776Z,7.30
2023-01-21T10:41:11.848Z,7.50
2023-01-21T10:46:25.000Z,6.17
2023-01-21T10:51:33.113Z,7.87
2023-01-21T10:56:43.881Z,7.40
2023-01-21T11:01:51.907Z,9.17
2023-01-21T11:07:00.547Z,8.90
2023-01-21T11:12:04.234Z,12.80
2023-01-21T11:17:08.935Z,16.27
2023-01-21T11:22:23.574Z,12.97
2023-01-21T11:27:34.862Z,10.40
2023-01-21T11:32:39.664Z,10.03
2023-01-21T11:37:46.297Z,9.03
2023-01-21T11:42:51.547Z,7.33
2023-01-21T11:47:56.947Z,8.20
2023-01-21T11:53:13.199Z,12.57
2023-01-21T11:58:23.729Z,7.27
2023-01-21T12:03:32.689Z,7.77
2023-01-21T12:08:38.899Z,7.70
2023-01-21T12:13:51.877Z,7.13
2023-01-21T12:19:16.288Z,9.60
2023-01-21T12:24:30.271Z,7.20
2023-01-21T12:29:53.809Z,6.20
2023-01-21T12:35:03.490Z,8.43
2023-01-21T12:40:17.371Z,8.10
2023-01-21T12:45:25.828Z,8.50
2023-01-21T12:50:39.705Z,10.60
2023-01-21T12:56:04.533Z,8.10
2023-01-21T13:01:12.414Z,7.40
2023-01-21T13:06:29.524Z,7.20
2023-01-21T13:11:41.888Z,6.83
2023-01-21T13:16:50.572Z,10.67
2023-01-21T13:22:00.654Z,8.40
2023-01-21T13:27:16.880Z,9.93
2023-01-21T13:32:35.811Z,8.00
2023-01-21T13:37:51.377Z,7.93
2023-01-21T13:43:04.207Z,7.90
2023-01-21T13:48:25.822Z,9.00
2023-01-21T13:53:47.137Z,8.77
2023-01-21T13:58:54.762Z,7.70
2023-01-21T14:04:03.237Z,8.83
2023-01-21T14:09:14.865Z,9.47
2023-01-21T14:14:54.994Z,8.60
2023-01-21T14:20:13.701Z,10.67
2023-01-21T14:25:29.358Z,9.33
2023-01-21T14:30:41.232Z,11.90
2023-01-21T14:35:49.209Z,8.03
2023-01-21T14:41:06.476Z,10.90
2023-01-21T14:46:28.851Z,9.20
2023-01-21T14:51:32.694Z,7.73
2023-01-21T14:56:38.403Z,7.23
2023-01-21T15:01:45.147Z,8.30
2023-01-21T15:06:52.163Z,11.90
2023-01-21T15:12:02.062Z,9.10
2023-01-21T15:17:05.987Z,7.70
2023-01-21T15:22:40.858Z,8.87
2023-01-21T15:28:23.746Z,7.80
2023-01-21T15:33:28.336Z,6.57
2023-01-21T15:38:31.819Z,7.73
2023-01-21T15:43:45.075Z,6.93
2023-01-21T15:49:15.600Z,6.57
2023-01-21T15:54:30.192Z,6.90
2023-01-21T15:59:58.349Z,6.10
2023-01-21T16:05:17.785Z,7.30
2023-01-21T16:10:32.890Z,7.30
2023-01-21T16:15:47.092Z,8.57
2023-01-21T16:20:53.923Z,7.37
2023-01-21T16:25:57.460Z,7.30
2023-01-21T16:31:05.818Z,7.70
2023-01-21T16:36:14.167Z,7.33
2023-01-21T16:41:27.760Z,7.63
2023-01-21T16:46:37.459Z,8.40
2023-01-21T16:51:45.431Z,7.50
2023-01-21T16:56:50.450Z,7.27
2023-01-21T17:01:56.303Z,7.00
2023-01-21T17:06:59.970Z,7.50
2023-01-21T17:12:06.993Z,6.57
2023-01-21T17:17:21.073Z,7.23
2023-01-21T17:22:27.405Z,7.03
2023-01-21T17:27:32.516Z,6.17
2023-01-21T17:32:38.161Z,6.53
2023-01-21T17:37:43.973Z,6.37
2023-01-21T17:42:47.231Z,7.07
2023-01-21T17:48:08.663Z,7.70
2023-01-21T17:53:21.217Z,7.07
2023-01-21T17:58:45.916Z,7.00
2023-01-21T18:03:50.596Z,7.57
2023-01-21T18:08:54.258Z,7.80
2023-01-21T18:13:57.539Z,7.47
2023-01-21T18:19:02.051Z,7.80
2023-01-21T18:24:05.603Z,7.30
2023-01-21T18:29:11.670Z,8.07
2023-01-21T18:34:16.349Z,6.97
2023-01-21T18:39:21.065Z,6.90
2023-01-21T18:44:24.216Z,6.97
2023-01-21T18:49:29.469Z,7.70
2023-01-21T18:54:34.176Z,6.50
2023-01-21T18:59:38.449Z,6.37
2023-01-21T19:04:42.980Z,6.77
2023-01-21T19:09:46.440Z,7.13
2023-01-21T19:14:49.826Z,5.70
2023-01-21T19:19:54.800Z,5.40
2023-01-21T19:24:58.228Z,4.60
2023-01-21T19:30:01.345Z,4.00
2023-01-21T19:35:06.649Z,4.27
2023-01-21T19:40:15.725Z,5.20
2023-01-21T19:45:20.358Z,3.40
2023-01-21T19:50:26.490Z,3.30
2023-01-21T19:55:32.086Z,3.47
2023-01-21T20:00:37.437Z,3.20
2023-01-21T20:05:43.350Z,2.90
2023-01-21T20:10:47.008Z,2.50
2023-01-21T20:15:52.912Z,2.10
2023-01-21T20:20:57.557Z,2.10
2023-01-21T20:26:00.939Z,3.00
2023-01-21T20:31:07.213Z,1.67
2023-01-21T20:36:18.337Z,2.63
2023-01-21T20:41:22.052Z,2.17
2023-01-21T20:46:28.490Z,1.33
2023-01-21T20:51:33.211Z,1.50
2023-01-21T20:56:38.373Z,1.17
2023-01-21T21:01:41.599Z,2.30
2023-01-21T21:06:46.450Z,1.70
2023-01-21T21:11:49.886Z,3.37
2023-01-21T21:16:54.515Z,2.40
2023-01-21T21:21:59.068Z,2.67
2023-01-21T21:27:03.559Z,1.50
2023-01-21T21:32:07.640Z,2.73
2023-01-21T21:37:13.741Z,1.07
2023-01-21T21:42:36.873Z,1.00
2023-01-21T21:47:57.538Z,2.63
2023-01-21T21:53:02.298Z,1.43
2023-01-21T21:58:05.762Z,1.90
2023-01-21T22:03:12.222Z,1.63
2023-01-21T22:08:17.971Z,0.77
2023-01-21T22:13:21.462Z,1.57
2023-01-21T22:18:25.093Z,1.60
2023-01-21T22:23:30.616Z,1.37
2023-01-21T22:28:35.229Z,1.07
2023-01-21T22:33:39.361Z,0.70
2023-01-21T22:38:45.704Z,1.53
2023-01-21T22:43:50.066Z,1.00
2023-01-21T22:48:55.046Z,1.00
2023-01-21T22:54:00.190Z,1.80
2023-01-21T22:59:03.696Z,1.73
2023-01-21T23:04:07.685Z,1.87
2023-01-21T23:09:14.550Z,16.10
2023-01-21T23:14:18.032Z,3.00
2023-01-21T23:19:21.534Z,4.50
2023-01-21T23:24:26.296Z,2.83
2023-01-21T23:29:29.862Z,4.40
2023-01-21T23:34:33.460Z,5.37
2023-01-21T23:39:38.370Z,2.37
2023-01-21T23:44:41.385Z,2.87
2023-01-21T23:49:44.713Z,2.10
2023-01-21T23:54:49.788Z,1.90
2023-01-21T23:59:53.426Z,2.20
